sensor_id;sensor_type;location;lat;lon;timestamp;P1;durP1;ratioP1;P2;durP2;ratioP2
15643;SDS011;7921;43.586;1.408;2022-09-01T00:01:52;4.68;;;4.15;;
15643;SDS011;7921;43.586;1.408;2022-09-01T00:04:19;5.35;;;3.80;;
15643;SDS011;7921;43.586;1.408;2022-09-01T00:06:47;5.43;;;4.05;;
15643;SDS011;7921;43.586;1.408;2022-09-01T00:09:14;7.30;;;4.45;;
15643;SDS011;7921;43.586;1.408;2022-09-01T00:11:43;4.40;;;3.97;;
15643;SDS011;7921;43.586;1.408;2022-09-01T00:14:11;7.25;;;3.90;;
15643;SDS011;7921;43.586;1.408;2022-09-01T00:16:37;3.97;;;3.67;;
15643;SDS011;7921;43.586;1.408;2022-09-01T00:19:03;5.38;;;3.83;;
15643;SDS011;7921;43.586;1.408;2022-09-01T00:21:31;7.03;;;4.28;;
15643;SDS011;7921;43.586;1.408;2022-09-01T00:23:59;4.40;;;3.90;;
15643;SDS011;7921;43.586;1.408;2022-09-01T00:26:25;4.82;;;4.32;;
15643;SDS011;7921;43.586;1.408;2022-09-01T00:28:50;5.55;;;3.80;;
15643;SDS011;7921;43.586;1.408;2022-09-01T00:31:16;4.68;;;4.00;;
15643;SDS011;7921;43.586;1.408;2022-09-01T00:33:44;4.05;;;3.75;;
15643;SDS011;7921;43.586;1.408;2022-09-01T00:36:10;4.18;;;3.80;;
15643;SDS011;7921;43.586;1.408;2022-09-01T00:38:35;5.97;;;3.90;;
15643;SDS011;7921;43.586;1.408;2022-09-01T00:41:01;5.15;;;4.05;;
15643;SDS011;7921;43.586;1.408;2022-09-01T00:43:40;4.78;;;3.90;;
15643;SDS011;7921;43.586;1.408;2022-09-01T00:46:23;5.63;;;4.28;;
15643;SDS011;7921;43.586;1.408;2022-09-01T00:51:49;5.25;;;4.00;;
15643;SDS011;7921;43.586;1.408;2022-09-01T00:54:20;4.75;;;4.15;;
15643;SDS011;7921;43.586;1.408;2022-09-01T00:56:47;6.85;;;4.43;;
15643;SDS011;7921;43.586;1.408;2022-09-01T00:59:13;4.38;;;4.03;;
15643;SDS011;7921;43.586;1.408;2022-09-01T01:01:40;7.13;;;4.38;;
15643;SDS011;7921;43.586;1.408;2022-09-01T01:04:07;4.70;;;4.22;;
15643;SDS011;7921;43.586;1.408;2022-09-01T01:09:35;4.43;;;3.63;;
15643;SDS011;7921;43.586;1.408;2022-09-01T01:12:03;6.00;;;4.22;;
15643;SDS011;7921;43.586;1.408;2022-09-01T01:14:30;6.00;;;4.28;;
15643;SDS011;7921;43.586;1.408;2022-09-01T01:16:58;6.47;;;4.68;;
15643;SDS011;7921;43.586;1.408;2022-09-01T01:25:45;5.43;;;4.68;;
15643;SDS011;7921;43.586;1.408;2022-09-01T01:30:46;5.00;;;3.90;;
15643;SDS011;7921;43.586;1.408;2022-09-01T01:33:16;5.22;;;4.22;;
15643;SDS011;7921;43.586;1.408;2022-09-01T01:35:46;4.82;;;4.13;;
15643;SDS011;7921;43.586;1.408;2022-09-01T01:38:12;4.50;;;4.03;;
15643;SDS011;7921;43.586;1.408;2022-09-01T01:40:39;4.57;;;4.03;;
15643;SDS011;7921;43.586;1.408;2022-09-01T01:43:05;5.97;;;4.57;;
15643;SDS011;7921;43.586;1.408;2022-09-01T01:45:31;7.38;;;4.53;;
15643;SDS011;7921;43.586;1.408;2022-09-01T01:47:57;8.05;;;4.55;;
15643;SDS011;7921;43.586;1.408;2022-09-01T01:50:25;5.18;;;4.68;;
15643;SDS011;7921;43.586;1.408;2022-09-01T01:52:52;5.60;;;4.70;;
15643;SDS011;7921;43.586;1.408;2022-09-01T01:55:18;5.93;;;4.63;;
15643;SDS011;7921;43.586;1.408;2022-09-01T01:57:46;6.80;;;4.65;;
15643;SDS011;7921;43.586;1.408;2022-09-01T02:00:16;5.85;;;4.50;;
15643;SDS011;7921;43.586;1.408;2022-09-01T02:02:46;6.63;;;4.60;;
15643;SDS011;7921;43.586;1.408;2022-09-01T02:05:16;6.40;;;4.47;;
15643;SDS011;7921;43.586;1.408;2022-09-01T02:08:04;6.00;;;4.47;;
15643;SDS011;7921;43.586;1.408;2022-09-01T02:10:32;7.00;;;4.80;;
15643;SDS011;7921;43.586;1.408;2022-09-01T02:13:00;5.45;;;4.72;;
15643;SDS011;7921;43.586;1.408;2022-09-01T02:15:30;6.07;;;4.80;;
15643;SDS011;7921;43.586;1.408;2022-09-01T02:17:59;8.23;;;5.25;;
15643;SDS011;7921;43.586;1.408;2022-09-01T02:20:25;4.78;;;4.22;;
15643;SDS011;7921;43.586;1.408;2022-09-01T02:22:54;6.07;;;4.78;;
15643;SDS011;7921;43.586;1.408;2022-09-01T02:25:20;6.35;;;4.82;;
15643;SDS011;7921;43.586;1.408;2022-09-01T02:27:46;5.63;;;5.13;;
15643;SDS011;7921;43.586;1.408;2022-09-01T02:30:19;5.55;;;4.30;;
15643;SDS011;7921;43.586;1.408;2022-09-01T02:32:46;6.40;;;4.60;;
15643;SDS011;7921;43.586;1.408;2022-09-01T02:35:11;6.38;;;4.68;;
15643;SDS011;7921;43.586;1.408;2022-09-01T02:37:38;8.68;;;4.47;;
15643;SDS011;7921;43.586;1.408;2022-09-01T02:40:04;6.15;;;4.47;;
15643;SDS011;7921;43.586;1.408;2022-09-01T02:42:32;4.93;;;4.47;;
15643;SDS011;7921;43.586;1.408;2022-09-01T02:44:57;6.22;;;4.97;;
15643;SDS011;7921;43.586;1.408;2022-09-01T02:47:22;4.63;;;4.15;;
15643;SDS011;7921;43.586;1.408;2022-09-01T02:49:51;4.70;;;4.30;;
15643;SDS011;7921;43.586;1.408;2022-09-01T02:52:17;4.85;;;4.43;;
15643;SDS011;7921;43.586;1.408;2022-09-01T02:54:44;5.35;;;4.82;;
15643;SDS011;7921;43.586;1.408;2022-09-01T02:57:13;5.93;;;4.28;;
15643;SDS011;7921;43.586;1.408;2022-09-01T02:59:39;6.40;;;4.78;;
15643;SDS011;7921;43.586;1.408;2022-09-01T03:02:06;7.55;;;4.68;;
15643;SDS011;7921;43.586;1.408;2022-09-01T03:04:33;5.63;;;5.05;;
15643;SDS011;7921;43.586;1.408;2022-09-01T03:07:00;5.68;;;5.13;;
15643;SDS011;7921;43.586;1.408;2022-09-01T03:09:26;4.75;;;4.35;;
15643;SDS011;7921;43.586;1.408;2022-09-01T03:11:52;5.55;;;4.80;;
15643;SDS011;7921;43.586;1.408;2022-09-01T03:14:18;6.95;;;4.75;;
15643;SDS011;7921;43.586;1.408;2022-09-01T03:16:44;7.03;;;4.32;;
15643;SDS011;7921;43.586;1.408;2022-09-01T03:19:10;4.93;;;4.40;;
15643;SDS011;7921;43.586;1.408;2022-09-01T03:21:40;5.70;;;4.65;;
15643;SDS011;7921;43.586;1.408;2022-09-01T03:24:08;6.15;;;4.53;;
15643;SDS011;7921;43.586;1.408;2022-09-01T03:26:34;5.88;;;4.45;;
15643;SDS011;7921;43.586;1.408;2022-09-01T03:29:00;7.05;;;4.57;;
15643;SDS011;7921;43.586;1.408;2022-09-01T03:31:26;7.63;;;4.40;;
15643;SDS011;7921;43.586;1.408;2022-09-01T03:33:52;6.15;;;4.45;;
15643;SDS011;7921;43.586;1.408;2022-09-01T03:36:21;5.28;;;4.72;;
15643;SDS011;7921;43.586;1.408;2022-09-01T03:38:48;7.60;;;4.35;;
15643;SDS011;7921;43.586;1.408;2022-09-01T03:41:15;6.15;;;4.80;;
15643;SDS011;7921;43.586;1.408;2022-09-01T03:43:42;4.65;;;4.28;;
15643;SDS011;7921;43.586;1.408;2022-09-01T03:46:08;8.13;;;4.90;;
15643;SDS011;7921;43.586;1.408;2022-09-01T03:48:39;5.20;;;4.72;;
15643;SDS011;7921;43.586;1.408;2022-09-01T03:51:06;5.72;;;4.78;;
15643;SDS011;7921;43.586;1.408;2022-09-01T03:53:34;6.57;;;4.90;;
15643;SDS011;7921;43.586;1.408;2022-09-01T03:56:02;6.47;;;5.25;;
15643;SDS011;7921;43.586;1.408;2022-09-01T03:58:28;5.68;;;4.07;;
15643;SDS011;7921;43.586;1.408;2022-09-01T04:00:55;5.03;;;4.57;;
15643;SDS011;7921;43.586;1.408;2022-09-01T04:03:23;4.68;;;4.10;;
15643;SDS011;7921;43.586;1.408;2022-09-01T04:05:50;5.32;;;4.22;;
15643;SDS011;7921;43.586;1.408;2022-09-01T04:08:16;6.47;;;4.82;;
15643;SDS011;7921;43.586;1.408;2022-09-01T04:10:44;4.90;;;4.43;;
15643;SDS011;7921;43.586;1.408;2022-09-01T04:13:21;5.88;;;4.78;;
15643;SDS011;7921;43.586;1.408;2022-09-01T04:15:48;5.22;;;4.53;;
15643;SDS011;7921;43.586;1.408;2022-09-01T04:18:15;4.97;;;4.28;;
15643;SDS011;7921;43.586;1.408;2022-09-01T04:20:45;5.53;;;4.78;;
15643;SDS011;7921;43.586;1.408;2022-09-01T04:26:12;4.80;;;4.28;;
15643;SDS011;7921;43.586;1.408;2022-09-01T04:28:42;4.90;;;4.40;;
15643;SDS011;7921;43.586;1.408;2022-09-01T04:31:14;5.43;;;4.50;;
15643;SDS011;7921;43.586;1.408;2022-09-01T04:33:42;6.90;;;4.60;;
15643;SDS011;7921;43.586;1.408;2022-09-01T04:38:43;6.70;;;4.65;;
15643;SDS011;7921;43.586;1.408;2022-09-01T04:41:09;5.97;;;5.30;;
15643;SDS011;7921;43.586;1.408;2022-09-01T04:43:37;6.05;;;5.10;;
15643;SDS011;7921;43.586;1.408;2022-09-01T04:46:04;5.20;;;4.55;;
15643;SDS011;7921;43.586;1.408;2022-09-01T04:48:29;5.63;;;4.82;;
15643;SDS011;7921;43.586;1.408;2022-09-01T04:50:55;5.43;;;4.50;;
15643;SDS011;7921;43.586;1.408;2022-09-01T04:53:21;4.90;;;4.47;;
15643;SDS011;7921;43.586;1.408;2022-09-01T04:55:47;6.63;;;4.68;;
15643;SDS011;7921;43.586;1.408;2022-09-01T04:58:14;5.43;;;4.82;;
15643;SDS011;7921;43.586;1.408;2022-09-01T05:00:45;6.07;;;5.03;;
15643;SDS011;7921;43.586;1.408;2022-09-01T05:03:19;4.80;;;4.32;;
15643;SDS011;7921;43.586;1.408;2022-09-01T05:05:47;6.20;;;5.07;;
15643;SDS011;7921;43.586;1.408;2022-09-01T05:08:15;5.88;;;5.28;;
15643;SDS011;7921;43.586;1.408;2022-09-01T05:10:45;5.90;;;4.70;;
15643;SDS011;7921;43.586;1.408;2022-09-01T05:13:14;9.93;;;5.10;;
15643;SDS011;7921;43.586;1.408;2022-09-01T05:15:42;8.23;;;5.13;;
15643;SDS011;7921;43.586;1.408;2022-09-01T05:18:18;6.30;;;5.70;;
15643;SDS011;7921;43.586;1.408;2022-09-01T05:20:50;5.85;;;5.20;;
15643;SDS011;7921;43.586;1.408;2022-09-01T05:23:16;6.28;;;5.00;;
15643;SDS011;7921;43.586;1.408;2022-09-01T05:25:44;6.05;;;5.50;;
15643;SDS011;7921;43.586;1.408;2022-09-01T05:28:10;5.78;;;4.85;;
15643;SDS011;7921;43.586;1.408;2022-09-01T05:30:39;6.28;;;5.47;;
15643;SDS011;7921;43.586;1.408;2022-09-01T05:33:06;5.28;;;4.85;;
15643;SDS011;7921;43.586;1.408;2022-09-01T05:35:39;5.68;;;5.18;;
15643;SDS011;7921;43.586;1.408;2022-09-01T05:38:09;5.57;;;5.03;;
15643;SDS011;7921;43.586;1.408;2022-09-01T05:40:39;8.93;;;5.40;;
15643;SDS011;7921;43.586;1.408;2022-09-01T05:43:09;6.53;;;4.82;;
15643;SDS011;7921;43.586;1.408;2022-09-01T05:45:37;6.82;;;5.25;;
15643;SDS011;7921;43.586;1.408;2022-09-01T05:48:05;6.97;;;6.30;;
15643;SDS011;7921;43.586;1.408;2022-09-01T05:50:33;7.75;;;6.75;;
15643;SDS011;7921;43.586;1.408;2022-09-01T05:52:59;11.43;;;10.43;;
15643;SDS011;7921;43.586;1.408;2022-09-01T05:55:24;18.45;;;16.75;;
15643;SDS011;7921;43.586;1.408;2022-09-01T05:57:51;15.32;;;14.05;;
15643;SDS011;7921;43.586;1.408;2022-09-01T06:00:18;13.13;;;11.88;;
15643;SDS011;7921;43.586;1.408;2022-09-01T06:02:44;13.00;;;11.90;;
15643;SDS011;7921;43.586;1.408;2022-09-01T06:05:09;11.95;;;10.95;;
15643;SDS011;7921;43.586;1.408;2022-09-01T06:07:35;9.23;;;8.32;;
15643;SDS011;7921;43.586;1.408;2022-09-01T06:10:02;8.07;;;7.28;;
15643;SDS011;7921;43.586;1.408;2022-09-01T06:12:29;7.60;;;6.90;;
15643;SDS011;7921;43.586;1.408;2022-09-01T06:14:55;7.18;;;6.57;;
15643;SDS011;7921;43.586;1.408;2022-09-01T06:17:21;7.07;;;6.38;;
15643;SDS011;7921;43.586;1.408;2022-09-01T06:19:49;7.50;;;6.13;;
15643;SDS011;7921;43.586;1.408;2022-09-01T06:22:17;5.95;;;5.35;;
15643;SDS011;7921;43.586;1.408;2022-09-01T06:24:44;5.80;;;5.20;;
15643;SDS011;7921;43.586;1.408;2022-09-01T06:27:11;6.65;;;5.35;;
15643;SDS011;7921;43.586;1.408;2022-09-01T06:29:37;6.25;;;5.60;;
15643;SDS011;7921;43.586;1.408;2022-09-01T06:32:04;5.63;;;4.80;;
15643;SDS011;7921;43.586;1.408;2022-09-01T06:34:33;6.55;;;4.95;;
15643;SDS011;7921;43.586;1.408;2022-09-01T06:37:00;9.13;;;5.45;;
15643;SDS011;7921;43.586;1.408;2022-09-01T06:39:25;6.35;;;5.10;;
15643;SDS011;7921;43.586;1.408;2022-09-01T06:41:51;6.32;;;5.63;;
15643;SDS011;7921;43.586;1.408;2022-09-01T06:44:17;5.22;;;4.72;;
15643;SDS011;7921;43.586;1.408;2022-09-01T06:46:51;6.25;;;5.40;;
15643;SDS011;7921;43.586;1.408;2022-09-01T06:49:18;5.53;;;4.90;;
15643;SDS011;7921;43.586;1.408;2022-09-01T06:51:47;5.68;;;4.90;;
15643;SDS011;7921;43.586;1.408;2022-09-01T06:54:15;9.95;;;5.00;;
15643;SDS011;7921;43.586;1.408;2022-09-01T06:56:41;4.57;;;4.18;;
15643;SDS011;7921;43.586;1.408;2022-09-01T06:59:07;6.68;;;4.35;;
15643;SDS011;7921;43.586;1.408;2022-09-01T07:01:33;4.50;;;4.10;;
15643;SDS011;7921;43.586;1.408;2022-09-01T07:03:59;6.70;;;4.13;;
15643;SDS011;7921;43.586;1.408;2022-09-01T07:06:25;8.65;;;5.22;;
15643;SDS011;7921;43.586;1.408;2022-09-01T07:08:56;4.97;;;4.47;;
15643;SDS011;7921;43.586;1.408;2022-09-01T07:11:28;5.40;;;4.18;;
15643;SDS011;7921;43.586;1.408;2022-09-01T07:13:59;5.40;;;4.45;;
15643;SDS011;7921;43.586;1.408;2022-09-01T07:16:26;5.25;;;3.60;;
15643;SDS011;7921;43.586;1.408;2022-09-01T07:18:54;4.65;;;3.55;;
15643;SDS011;7921;43.586;1.408;2022-09-01T07:21:21;5.10;;;3.75;;
15643;SDS011;7921;43.586;1.408;2022-09-01T07:23:47;4.82;;;4.30;;
15643;SDS011;7921;43.586;1.408;2022-09-01T07:26:12;4.68;;;3.90;;
15643;SDS011;7921;43.586;1.408;2022-09-01T07:28:42;7.07;;;4.00;;
15643;SDS011;7921;43.586;1.408;2022-09-01T07:31:15;4.97;;;4.50;;
15643;SDS011;7921;43.586;1.408;2022-09-01T07:33:44;4.65;;;4.05;;
15643;SDS011;7921;43.586;1.408;2022-09-01T07:36:15;4.70;;;3.63;;
15643;SDS011;7921;43.586;1.408;2022-09-01T07:38:41;8.07;;;4.43;;
15643;SDS011;7921;43.586;1.408;2022-09-01T07:41:07;4.35;;;3.53;;
15643;SDS011;7921;43.586;1.408;2022-09-01T07:43:37;4.20;;;3.70;;
15643;SDS011;7921;43.586;1.408;2022-09-01T07:46:08;4.15;;;3.55;;
15643;SDS011;7921;43.586;1.408;2022-09-01T07:48:34;5.47;;;3.83;;
15643;SDS011;7921;43.586;1.408;2022-09-01T07:51:00;4.38;;;3.97;;
15643;SDS011;7921;43.586;1.408;2022-09-01T07:53:27;5.40;;;3.65;;
15643;SDS011;7921;43.586;1.408;2022-09-01T07:55:58;5.20;;;4.00;;
15643;SDS011;7921;43.586;1.408;2022-09-01T07:58:26;11.65;;;4.05;;
15643;SDS011;7921;43.586;1.408;2022-09-01T08:00:54;5.88;;;3.95;;
15643;SDS011;7921;43.586;1.408;2022-09-01T08:03:21;3.72;;;3.42;;
15643;SDS011;7921;43.586;1.408;2022-09-01T08:05:48;4.15;;;3.67;;
15643;SDS011;7921;43.586;1.408;2022-09-01T08:08:17;8.23;;;4.22;;
15643;SDS011;7921;43.586;1.408;2022-09-01T08:10:44;6.80;;;4.30;;
15643;SDS011;7921;43.586;1.408;2022-09-01T08:13:10;7.10;;;4.25;;
15643;SDS011;7921;43.586;1.408;2022-09-01T08:15:37;5.70;;;4.18;;
15643;SDS011;7921;43.586;1.408;2022-09-01T08:18:03;5.22;;;3.83;;
15643;SDS011;7921;43.586;1.408;2022-09-01T08:20:28;5.05;;;3.72;;
15643;SDS011;7921;43.586;1.408;2022-09-01T08:22:54;4.38;;;3.95;;
15643;SDS011;7921;43.586;1.408;2022-09-01T08:25:20;7.30;;;3.92;;
15643;SDS011;7921;43.586;1.408;2022-09-01T08:27:45;6.35;;;3.72;;
15643;SDS011;7921;43.586;1.408;2022-09-01T08:30:11;4.15;;;3.67;;
15643;SDS011;7921;43.586;1.408;2022-09-01T08:32:37;4.25;;;3.60;;
15643;SDS011;7921;43.586;1.408;2022-09-01T08:35:06;5.00;;;3.63;;
15643;SDS011;7921;43.586;1.408;2022-09-01T08:37:33;3.63;;;3.30;;
15643;SDS011;7921;43.586;1.408;2022-09-01T08:39:58;4.65;;;3.67;;
15643;SDS011;7921;43.586;1.408;2022-09-01T08:47:56;4.22;;;3.10;;
15643;SDS011;7921;43.586;1.408;2022-09-01T08:50:23;3.10;;;2.80;;
15643;SDS011;7921;43.586;1.408;2022-09-01T08:52:57;3.53;;;3.08;;
15643;SDS011;7921;43.586;1.408;2022-09-01T08:55:39;7.88;;;3.83;;
15643;SDS011;7921;43.586;1.408;2022-09-01T08:58:07;3.78;;;3.40;;
15643;SDS011;7921;43.586;1.408;2022-09-01T09:00:38;3.58;;;3.28;;
15643;SDS011;7921;43.586;1.408;2022-09-01T09:06:14;5.03;;;3.30;;
15643;SDS011;7921;43.586;1.408;2022-09-01T09:17:07;4.25;;;3.67;;
15643;SDS011;7921;43.586;1.408;2022-09-01T09:19:34;5.38;;;3.58;;
15643;SDS011;7921;43.586;1.408;2022-09-01T09:22:06;5.30;;;3.47;;
15643;SDS011;7921;43.586;1.408;2022-09-01T09:29:50;3.88;;;2.92;;
15643;SDS011;7921;43.586;1.408;2022-09-01T09:32:20;4.15;;;3.03;;
15643;SDS011;7921;43.586;1.408;2022-09-01T09:34:47;4.13;;;3.38;;
15643;SDS011;7921;43.586;1.408;2022-09-01T09:37:27;5.05;;;3.60;;
15643;SDS011;7921;43.586;1.408;2022-09-01T09:40:02;4.72;;;3.78;;
15643;SDS011;7921;43.586;1.408;2022-09-01T09:42:28;6.65;;;3.33;;
15643;SDS011;7921;43.586;1.408;2022-09-01T09:44:54;4.18;;;3.58;;
15643;SDS011;7921;43.586;1.408;2022-09-01T09:52:49;3.78;;;3.47;;
15643;SDS011;7921;43.586;1.408;2022-09-01T09:57:46;4.05;;;3.08;;
15643;SDS011;7921;43.586;1.408;2022-09-01T10:02:50;5.93;;;3.65;;
15643;SDS011;7921;43.586;1.408;2022-09-01T10:07:50;4.30;;;3.17;;
15643;SDS011;7921;43.586;1.408;2022-09-01T10:10:30;4.05;;;3.60;;
15643;SDS011;7921;43.586;1.408;2022-09-01T10:13:07;5.47;;;3.72;;
15643;SDS011;7921;43.586;1.408;2022-09-01T10:15:35;4.32;;;3.40;;
15643;SDS011;7921;43.586;1.408;2022-09-01T10:18:05;3.50;;;3.20;;
15643;SDS011;7921;43.586;1.408;2022-09-01T10:20:35;6.10;;;3.40;;
15643;SDS011;7921;43.586;1.408;2022-09-01T10:23:02;5.28;;;3.60;;
15643;SDS011;7921;43.586;1.408;2022-09-01T10:25:28;4.78;;;3.53;;
15643;SDS011;7921;43.586;1.408;2022-09-01T10:28:03;4.65;;;3.72;;
15643;SDS011;7921;43.586;1.408;2022-09-01T10:30:37;5.65;;;3.58;;
15643;SDS011;7921;43.586;1.408;2022-09-01T10:33:06;4.85;;;4.13;;
15643;SDS011;7921;43.586;1.408;2022-09-01T10:35:33;3.50;;;3.20;;
15643;SDS011;7921;43.586;1.408;2022-09-01T10:38:05;3.72;;;3.30;;
15643;SDS011;7921;43.586;1.408;2022-09-01T10:42:59;5.50;;;3.35;;
15643;SDS011;7921;43.586;1.408;2022-09-01T10:45:45;5.20;;;3.58;;
15643;SDS011;7921;43.586;1.408;2022-09-01T10:50:47;5.50;;;3.63;;
15643;SDS011;7921;43.586;1.408;2022-09-01T10:55:59;4.38;;;3.97;;
15643;SDS011;7921;43.586;1.408;2022-09-01T11:04:04;3.53;;;3.03;;
15643;SDS011;7921;43.586;1.408;2022-09-01T11:09:18;4.28;;;3.63;;
15643;SDS011;7921;43.586;1.408;2022-09-01T11:14:27;4.85;;;3.45;;
15643;SDS011;7921;43.586;1.408;2022-09-01T11:27:02;6.35;;;3.67;;
15643;SDS011;7921;43.586;1.408;2022-09-01T11:32:15;3.97;;;3.50;;
15643;SDS011;7921;43.586;1.408;2022-09-01T11:34:41;3.67;;;3.35;;
15643;SDS011;7921;43.586;1.408;2022-09-01T11:37:12;4.32;;;3.72;;
15643;SDS011;7921;43.586;1.408;2022-09-01T11:39:41;3.88;;;3.08;;
15643;SDS011;7921;43.586;1.408;2022-09-01T11:42:18;3.60;;;3.30;;
15643;SDS011;7921;43.586;1.408;2022-09-01T11:44:48;4.60;;;3.50;;
15643;SDS011;7921;43.586;1.408;2022-09-01T11:52:31;3.90;;;3.42;;
15643;SDS011;7921;43.586;1.408;2022-09-01T11:55:00;4.75;;;3.58;;
15643;SDS011;7921;43.586;1.408;2022-09-01T11:57:30;5.40;;;3.50;;
15643;SDS011;7921;43.586;1.408;2022-09-01T11:59:59;4.05;;;3.53;;
15643;SDS011;7921;43.586;1.408;2022-09-01T12:02:31;7.93;;;3.47;;
15643;SDS011;7921;43.586;1.408;2022-09-01T12:04:59;3.53;;;3.20;;
15643;SDS011;7921;43.586;1.408;2022-09-01T12:09:50;4.25;;;3.75;;
15643;SDS011;7921;43.586;1.408;2022-09-01T12:12:30;3.85;;;3.25;;
15643;SDS011;7921;43.586;1.408;2022-09-01T12:15:10;4.25;;;3.78;;
15643;SDS011;7921;43.586;1.408;2022-09-01T12:17:41;7.05;;;4.10;;
15643;SDS011;7921;43.586;1.408;2022-09-01T12:20:19;3.83;;;3.42;;
15643;SDS011;7921;43.586;1.408;2022-09-01T12:22:52;5.38;;;3.55;;
15643;SDS011;7921;43.586;1.408;2022-09-01T12:25:22;3.67;;;3.35;;
15643;SDS011;7921;43.586;1.408;2022-09-01T12:27:49;3.60;;;3.30;;
15643;SDS011;7921;43.586;1.408;2022-09-01T12:30:16;4.38;;;3.45;;
15643;SDS011;7921;43.586;1.408;2022-09-01T12:32:42;4.75;;;3.70;;
15643;SDS011;7921;43.586;1.408;2022-09-01T12:35:29;5.40;;;3.50;;
15643;SDS011;7921;43.586;1.408;2022-09-01T12:40:43;3.85;;;3.28;;
15643;SDS011;7921;43.586;1.408;2022-09-01T12:43:33;3.90;;;3.50;;
15643;SDS011;7921;43.586;1.408;2022-09-01T12:46:00;4.78;;;3.22;;
15643;SDS011;7921;43.586;1.408;2022-09-01T12:48:38;3.88;;;3.28;;
15643;SDS011;7921;43.586;1.408;2022-09-01T12:51:23;5.68;;;3.40;;
15643;SDS011;7921;43.586;1.408;2022-09-01T12:53:50;4.28;;;3.22;;
15643;SDS011;7921;43.586;1.408;2022-09-01T12:56:19;6.60;;;4.17;;
15643;SDS011;7921;43.586;1.408;2022-09-01T12:58:49;7.25;;;4.03;;
15643;SDS011;7921;43.586;1.408;2022-09-01T13:01:23;4.63;;;3.50;;
15643;SDS011;7921;43.586;1.408;2022-09-01T13:06:32;3.97;;;3.58;;
15643;SDS011;7921;43.586;1.408;2022-09-01T13:08:57;6.40;;;3.45;;
15643;SDS011;7921;43.586;1.408;2022-09-01T13:11:22;5.50;;;3.72;;
15643;SDS011;7921;43.586;1.408;2022-09-01T13:13:48;4.60;;;3.42;;
15643;SDS011;7921;43.586;1.408;2022-09-01T13:16:13;3.60;;;3.30;;
15643;SDS011;7921;43.586;1.408;2022-09-01T13:18:39;3.60;;;2.95;;
15643;SDS011;7921;43.586;1.408;2022-09-01T13:21:06;4.53;;;3.30;;
15643;SDS011;7921;43.586;1.408;2022-09-01T13:23:32;4.07;;;2.97;;
15643;SDS011;7921;43.586;1.408;2022-09-01T13:25:57;3.75;;;2.83;;
15643;SDS011;7921;43.586;1.408;2022-09-01T13:28:23;3.22;;;2.92;;
15643;SDS011;7921;43.586;1.408;2022-09-01T13:30:53;5.95;;;3.30;;
15643;SDS011;7921;43.586;1.408;2022-09-01T13:33:21;4.47;;;2.90;;
15643;SDS011;7921;43.586;1.408;2022-09-01T13:35:47;4.57;;;3.05;;
15643;SDS011;7921;43.586;1.408;2022-09-01T13:38:13;3.67;;;3.20;;
15643;SDS011;7921;43.586;1.408;2022-09-01T13:40:40;3.47;;;2.90;;
15643;SDS011;7921;43.586;1.408;2022-09-01T13:43:07;3.10;;;2.78;;
15643;SDS011;7921;43.586;1.408;2022-09-01T13:45:32;3.35;;;2.65;;
15643;SDS011;7921;43.586;1.408;2022-09-01T13:47:58;4.25;;;2.60;;
15643;SDS011;7921;43.586;1.408;2022-09-01T13:50:24;3.40;;;2.70;;
15643;SDS011;7921;43.586;1.408;2022-09-01T13:52:51;3.10;;;2.80;;
15643;SDS011;7921;43.586;1.408;2022-09-01T13:55:22;4.38;;;2.95;;
15643;SDS011;7921;43.586;1.408;2022-09-01T13:57:49;4.50;;;2.85;;
15643;SDS011;7921;43.586;1.408;2022-09-01T14:00:16;3.42;;;3.13;;
15643;SDS011;7921;43.586;1.408;2022-09-01T14:02:49;6.93;;;3.33;;
15643;SDS011;7921;43.586;1.408;2022-09-01T14:05:21;5.07;;;2.65;;
15643;SDS011;7921;43.586;1.408;2022-09-01T14:07:48;3.25;;;2.67;;
15643;SDS011;7921;43.586;1.408;2022-09-01T14:10:14;3.53;;;3.05;;
15643;SDS011;7921;43.586;1.408;2022-09-01T14:12:40;7.50;;;3.40;;
15643;SDS011;7921;43.586;1.408;2022-09-01T14:15:06;3.38;;;3.08;;
15643;SDS011;7921;43.586;1.408;2022-09-01T14:17:33;3.50;;;3.20;;
15643;SDS011;7921;43.586;1.408;2022-09-01T14:19:59;3.95;;;3.47;;
15643;SDS011;7921;43.586;1.408;2022-09-01T14:22:25;2.95;;;2.75;;
15643;SDS011;7921;43.586;1.408;2022-09-01T14:24:51;5.40;;;2.90;;
15643;SDS011;7921;43.586;1.408;2022-09-01T14:27:16;3.03;;;2.80;;
15643;SDS011;7921;43.586;1.408;2022-09-01T14:29:41;2.80;;;2.60;;
15643;SDS011;7921;43.586;1.408;2022-09-01T14:32:07;3.85;;;2.25;;
15643;SDS011;7921;43.586;1.408;2022-09-01T14:34:33;3.05;;;2.70;;
15643;SDS011;7921;43.586;1.408;2022-09-01T14:36:59;3.17;;;2.85;;
15643;SDS011;7921;43.586;1.408;2022-09-01T14:39:24;6.38;;;2.67;;
15643;SDS011;7921;43.586;1.408;2022-09-01T14:41:50;4.18;;;2.85;;
15643;SDS011;7921;43.586;1.408;2022-09-01T14:44:15;3.55;;;2.75;;
15643;SDS011;7921;43.586;1.408;2022-09-01T14:46:41;3.03;;;2.47;;
15643;SDS011;7921;43.586;1.408;2022-09-01T14:49:07;3.75;;;3.17;;
15643;SDS011;7921;43.586;1.408;2022-09-01T14:51:33;3.10;;;2.60;;
15643;SDS011;7921;43.586;1.408;2022-09-01T14:54:00;3.20;;;2.22;;
15643;SDS011;7921;43.586;1.408;2022-09-01T14:56:25;2.95;;;2.60;;
15643;SDS011;7921;43.586;1.408;2022-09-01T14:58:51;3.30;;;2.47;;
15643;SDS011;7921;43.586;1.408;2022-09-01T15:01:23;3.17;;;2.80;;
15643;SDS011;7921;43.586;1.408;2022-09-01T15:03:49;4.25;;;2.90;;
15643;SDS011;7921;43.586;1.408;2022-09-01T15:06:16;3.95;;;2.47;;
15643;SDS011;7921;43.586;1.408;2022-09-01T15:08:42;2.75;;;2.55;;
15643;SDS011;7921;43.586;1.408;2022-09-01T15:11:12;2.90;;;2.47;;
15643;SDS011;7921;43.586;1.408;2022-09-01T15:13:39;6.38;;;2.60;;
15643;SDS011;7921;43.586;1.408;2022-09-01T15:16:11;3.45;;;2.30;;
15643;SDS011;7921;43.586;1.408;2022-09-01T15:18:38;3.97;;;2.70;;
15643;SDS011;7921;43.586;1.408;2022-09-01T15:21:03;3.45;;;2.67;;
15643;SDS011;7921;43.586;1.408;2022-09-01T15:23:29;2.70;;;2.28;;
15643;SDS011;7921;43.586;1.408;2022-09-01T15:25:55;2.97;;;2.65;;
15643;SDS011;7921;43.586;1.408;2022-09-01T15:28:21;3.45;;;2.63;;
15643;SDS011;7921;43.586;1.408;2022-09-01T15:30:48;4.72;;;2.35;;
15643;SDS011;7921;43.586;1.408;2022-09-01T15:33:14;3.65;;;2.72;;
15643;SDS011;7921;43.586;1.408;2022-09-01T15:35:39;2.90;;;2.65;;
15643;SDS011;7921;43.586;1.408;2022-09-01T15:38:05;5.20;;;2.85;;
15643;SDS011;7921;43.586;1.408;2022-09-01T15:40:37;5.43;;;2.40;;
15643;SDS011;7921;43.586;1.408;2022-09-01T15:43:04;4.45;;;2.70;;
15643;SDS011;7921;43.586;1.408;2022-09-01T15:45:29;2.70;;;2.25;;
15643;SDS011;7921;43.586;1.408;2022-09-01T15:47:55;2.50;;;2.25;;
15643;SDS011;7921;43.586;1.408;2022-09-01T15:50:21;2.50;;;2.30;;
15643;SDS011;7921;43.586;1.408;2022-09-01T15:55:20;2.25;;;2.05;;
15643;SDS011;7921;43.586;1.408;2022-09-01T15:57:47;2.88;;;2.13;;
15643;SDS011;7921;43.586;1.408;2022-09-01T16:00:12;2.53;;;2.30;;
15643;SDS011;7921;43.586;1.408;2022-09-01T16:02:38;3.08;;;2.50;;
15643;SDS011;7921;43.586;1.408;2022-09-01T16:05:04;2.63;;;2.42;;
15643;SDS011;7921;43.586;1.408;2022-09-01T16:07:30;2.60;;;2.25;;
15643;SDS011;7921;43.586;1.408;2022-09-01T16:09:55;4.28;;;2.70;;
15643;SDS011;7921;43.586;1.408;2022-09-01T16:12:22;3.90;;;2.72;;
15643;SDS011;7921;43.586;1.408;2022-09-01T16:14:50;4.57;;;2.30;;
15643;SDS011;7921;43.586;1.408;2022-09-01T16:20:07;2.83;;;2.20;;
15643;SDS011;7921;43.586;1.408;2022-09-01T16:22:36;1.88;;;1.73;;
15643;SDS011;7921;43.586;1.408;2022-09-01T16:25:07;3.25;;;2.15;;
15643;SDS011;7921;43.586;1.408;2022-09-01T16:27:38;2.42;;;2.22;;
15643;SDS011;7921;43.586;1.408;2022-09-01T16:30:08;3.92;;;2.10;;
15643;SDS011;7921;43.586;1.408;2022-09-01T16:32:42;3.13;;;2.00;;
15643;SDS011;7921;43.586;1.408;2022-09-01T16:35:09;2.50;;;2.20;;
15643;SDS011;7921;43.586;1.408;2022-09-01T16:43:04;2.40;;;2.20;;
15643;SDS011;7921;43.586;1.408;2022-09-01T16:45:44;3.58;;;2.53;;
15643;SDS011;7921;43.586;1.408;2022-09-01T16:48:32;5.35;;;1.85;;
15643;SDS011;7921;43.586;1.408;2022-09-01T16:54:32;3.47;;;2.30;;
15643;SDS011;7921;43.586;1.408;2022-09-01T16:59:30;4.00;;;2.20;;
15643;SDS011;7921;43.586;1.408;2022-09-01T17:05:32;2.63;;;2.17;;
15643;SDS011;7921;43.586;1.408;2022-09-01T17:08:06;7.55;;;2.10;;